sensor_id;sensor_type;location;lat;lon;timestamp;P1;durP1;ratioP1;P2;durP2;ratioP2
21091;SDS011;10704;42.678;23.288;2024-01-15T00:00:45;70.90;;;30.55;;
21091;SDS011;10704;42.678;23.288;2024-01-15T00:03:11;68.57;;;29.23;;
21091;SDS011;10704;42.678;23.288;2024-01-15T00:05:36;62.30;;;31.23;;
21091;SDS011;10704;42.678;23.288;2024-01-15T00:08:03;62.57;;;29.30;;
21091;SDS011;10704;42.678;23.288;2024-01-15T00:10:29;67.35;;;30.23;;
21091;SDS011;10704;42.678;23.288;2024-01-15T00:12:55;64.70;;;30.53;;
21091;SDS011;10704;42.678;23.288;2024-01-15T00:15:21;65.07;;;31.60;;
21091;SDS011;10704;42.678;23.288;2024-01-15T00:17:48;70.43;;;30.02;;
21091;SDS011;10704;42.678;23.288;2024-01-15T00:20:13;63.75;;;30.05;;
21091;SDS011;10704;42.678;23.288;2024-01-15T00:22:39;72.03;;;29.98;;
21091;SDS011;10704;42.678;23.288;2024-01-15T00:25:05;87.50;;;38.45;;
21091;SDS011;10704;42.678;23.288;2024-01-15T00:27:32;79.93;;;35.42;;
21091;SDS011;10704;42.678;23.288;2024-01-15T00:29:58;76.32;;;34.28;;
21091;SDS011;10704;42.678;23.288;2024-01-15T00:32:24;80.53;;;34.47;;
21091;SDS011;10704;42.678;23.288;2024-01-15T00:34:50;76.90;;;34.83;;
21091;SDS011;10704;42.678;23.288;2024-01-15T00:37:16;79.63;;;36.30;;
21091;SDS011;10704;42.678;23.288;2024-01-15T00:39:42;74.90;;;35.78;;
21091;SDS011;10704;42.678;23.288;2024-01-15T00:42:08;78.40;;;35.35;;
21091;SDS011;10704;42.678;23.288;2024-01-15T00:44:34;77.00;;;35.22;;
21091;SDS011;10704;42.678;23.288;2024-01-15T00:47:00;74.77;;;34.03;;
21091;SDS011;10704;42.678;23.288;2024-01-15T00:49:27;77.77;;;35.50;;
21091;SDS011;10704;42.678;23.288;2024-01-15T00:51:53;82.30;;;38.03;;
21091;SDS011;10704;42.678;23.288;2024-01-15T00:54:19;76.47;;;35.23;;
21091;SDS011;10704;42.678;23.288;2024-01-15T00:56:45;74.10;;;36.50;;
21091;SDS011;10704;42.678;23.288;2024-01-15T00:59:10;74.93;;;36.37;;
21091;SDS011;10704;42.678;23.288;2024-01-15T01:01:40;69.47;;;33.67;;
21091;SDS011;10704;42.678;23.288;2024-01-15T01:04:09;80.20;;;34.77;;
21091;SDS011;10704;42.678;23.288;2024-01-15T01:06:35;71.20;;;34.63;;
21091;SDS011;10704;42.678;23.288;2024-01-15T01:09:01;76.50;;;34.20;;
21091;SDS011;10704;42.678;23.288;2024-01-15T01:11:27;73.30;;;33.53;;
21091;SDS011;10704;42.678;23.288;2024-01-15T01:13:53;72.97;;;34.47;;
21091;SDS011;10704;42.678;23.288;2024-01-15T01:16:19;76.17;;;34.33;;
21091;SDS011;10704;42.678;23.288;2024-01-15T01:18:45;67.93;;;31.80;;
21091;SDS011;10704;42.678;23.288;2024-01-15T01:21:11;73.82;;;31.88;;
21091;SDS011;10704;42.678;23.288;2024-01-15T01:23:37;69.70;;;31.57;;
21091;SDS011;10704;42.678;23.288;2024-01-15T01:26:02;66.20;;;31.13;;
21091;SDS011;10704;42.678;23.288;2024-01-15T01:28:28;62.25;;;29.20;;
21091;SDS011;10704;42.678;23.288;2024-01-15T01:30:55;65.93;;;29.13;;
21091;SDS011;10704;42.678;23.288;2024-01-15T01:33:21;62.67;;;28.80;;
21091;SDS011;10704;42.678;23.288;2024-01-15T01:35:47;61.88;;;28.33;;
21091;SDS011;10704;42.678;23.288;2024-01-15T01:38:13;68.20;;;28.98;;
21091;SDS011;10704;42.678;23.288;2024-01-15T01:40:39;68.65;;;30.67;;
21091;SDS011;10704;42.678;23.288;2024-01-15T01:43:05;63.88;;;29.92;;
21091;SDS011;10704;42.678;23.288;2024-01-15T01:45:31;62.63;;;29.02;;
21091;SDS011;10704;42.678;23.288;2024-01-15T01:47:57;59.05;;;27.90;;
21091;SDS011;10704;42.678;23.288;2024-01-15T01:50:23;71.82;;;29.05;;
21091;SDS011;10704;42.678;23.288;2024-01-15T01:52:49;64.32;;;28.60;;
21091;SDS011;10704;42.678;23.288;2024-01-15T01:55:15;55.10;;;27.17;;
21091;SDS011;10704;42.678;23.288;2024-01-15T01:57:42;54.63;;;26.65;;
21091;SDS011;10704;42.678;23.288;2024-01-15T02:00:09;66.15;;;28.17;;
21091;SDS011;10704;42.678;23.288;2024-01-15T02:02:39;62.03;;;29.10;;
21091;SDS011;10704;42.678;23.288;2024-01-15T02:05:05;69.87;;;29.03;;
21091;SDS011;10704;42.678;23.288;2024-01-15T02:07:31;62.67;;;29.03;;
21091;SDS011;10704;42.678;23.288;2024-01-15T02:09:59;63.65;;;28.70;;
21091;SDS011;10704;42.678;23.288;2024-01-15T02:12:25;63.30;;;28.33;;
21091;SDS011;10704;42.678;23.288;2024-01-15T02:14:51;68.83;;;29.50;;
21091;SDS011;10704;42.678;23.288;2024-01-15T02:17:17;58.00;;;28.02;;
21091;SDS011;10704;42.678;23.288;2024-01-15T02:19:43;64.47;;;28.17;;
21091;SDS011;10704;42.678;23.288;2024-01-15T02:22:09;58.20;;;27.83;;
21091;SDS011;10704;42.678;23.288;2024-01-15T02:24:35;62.97;;;27.93;;
21091;SDS011;10704;42.678;23.288;2024-01-15T02:27:01;54.57;;;25.87;;
21091;SDS011;10704;42.678;23.288;2024-01-15T02:29:27;60.77;;;26.10;;
21091;SDS011;10704;42.678;23.288;2024-01-15T02:31:53;56.40;;;25.27;;
21091;SDS011;10704;42.678;23.288;2024-01-15T02:34:19;52.10;;;23.98;;
21091;SDS011;10704;42.678;23.288;2024-01-15T02:36:45;52.20;;;23.43;;
21091;SDS011;10704;42.678;23.288;2024-01-15T02:39:11;49.10;;;22.07;;
21091;SDS011;10704;42.678;23.288;2024-01-15T02:41:37;49.30;;;22.87;;
21091;SDS011;10704;42.678;23.288;2024-01-15T02:44:03;49.13;;;23.27;;
21091;SDS011;10704;42.678;23.288;2024-01-15T02:46:29;56.80;;;24.27;;
21091;SDS011;10704;42.678;23.288;2024-01-15T02:48:54;51.43;;;22.80;;
21091;SDS011;10704;42.678;23.288;2024-01-15T02:51:20;53.27;;;22.90;;
21091;SDS011;10704;42.678;23.288;2024-01-15T02:53:46;46.97;;;19.80;;
21091;SDS011;10704;42.678;23.288;2024-01-15T02:56:13;42.67;;;19.95;;
21091;SDS011;10704;42.678;23.288;2024-01-15T02:58:39;56.15;;;24.33;;
21091;SDS011;10704;42.678;23.288;2024-01-15T03:01:05;55.92;;;23.35;;
21091;SDS011;10704;42.678;23.288;2024-01-15T03:03:31;52.80;;;22.20;;
21091;SDS011;10704;42.678;23.288;2024-01-15T03:05:58;56.27;;;24.93;;
21091;SDS011;10704;42.678;23.288;2024-01-15T03:08:24;54.13;;;22.80;;
21091;SDS011;10704;42.678;23.288;2024-01-15T03:10:50;45.97;;;21.87;;
21091;SDS011;10704;42.678;23.288;2024-01-15T03:13:16;56.10;;;24.90;;
21091;SDS011;10704;42.678;23.288;2024-01-15T03:15:44;49.50;;;25.10;;
21091;SDS011;10704;42.678;23.288;2024-01-15T03:18:10;53.27;;;24.50;;
21091;SDS011;10704;42.678;23.288;2024-01-15T03:20:36;57.65;;;25.17;;
21091;SDS011;10704;42.678;23.288;2024-01-15T03:23:02;48.70;;;23.93;;
21091;SDS011;10704;42.678;23.288;2024-01-15T03:25:28;58.33;;;25.77;;
21091;SDS011;10704;42.678;23.288;2024-01-15T03:27:54;55.53;;;25.53;;
21091;SDS011;10704;42.678;23.288;2024-01-15T03:30:20;58.07;;;25.87;;
21091;SDS011;10704;42.678;23.288;2024-01-15T03:32:46;61.67;;;29.07;;
21091;SDS011;10704;42.678;23.288;2024-01-15T03:35:12;58.53;;;27.93;;
21091;SDS011;10704;42.678;23.288;2024-01-15T03:37:38;59.47;;;27.83;;
21091;SDS011;10704;42.678;23.288;2024-01-15T03:40:04;62.60;;;29.20;;
21091;SDS011;10704;42.678;23.288;2024-01-15T03:42:31;66.80;;;31.83;;
21091;SDS011;10704;42.678;23.288;2024-01-15T03:44:57;72.90;;;31.43;;
21091;SDS011;10704;42.678;23.288;2024-01-15T03:47:23;75.22;;;36.85;;
21091;SDS011;10704;42.678;23.288;2024-01-15T03:49:48;85.25;;;37.70;;
21091;SDS011;10704;42.678;23.288;2024-01-15T03:52:14;85.37;;;37.73;;
21091;SDS011;10704;42.678;23.288;2024-01-15T03:54:40;93.00;;;43.17;;
21091;SDS011;10704;42.678;23.288;2024-01-15T03:57:06;97.57;;;46.90;;
21091;SDS011;10704;42.678;23.288;2024-01-15T03:59:32;97.53;;;43.42;;
21091;SDS011;10704;42.678;23.288;2024-01-15T04:01:58;96.93;;;46.70;;
21091;SDS011;10704;42.678;23.288;2024-01-15T04:04:24;94.20;;;43.72;;
21091;SDS011;10704;42.678;23.288;2024-01-15T04:06:50;104.28;;;44.42;;
21091;SDS011;10704;42.678;23.288;2024-01-15T04:09:16;94.80;;;44.30;;
21091;SDS011;10704;42.678;23.288;2024-01-15T04:11:42;97.18;;;48.08;;
21091;SDS011;10704;42.678;23.288;2024-01-15T04:14:08;118.80;;;54.65;;
21091;SDS011;10704;42.678;23.288;2024-01-15T04:16:34;128.82;;;61.17;;
21091;SDS011;10704;42.678;23.288;2024-01-15T04:19:00;125.00;;;61.85;;
21091;SDS011;10704;42.678;23.288;2024-01-15T04:21:26;147.03;;;63.77;;
21091;SDS011;10704;42.678;23.288;2024-01-15T04:23:52;135.37;;;60.80;;
21091;SDS011;10704;42.678;23.288;2024-01-15T04:26:17;141.10;;;64.33;;
21091;SDS011;10704;42.678;23.288;2024-01-15T04:28:43;141.90;;;65.47;;
21091;SDS011;10704;42.678;23.288;2024-01-15T04:31:09;141.67;;;66.03;;
21091;SDS011;10704;42.678;23.288;2024-01-15T04:33:45;128.65;;;59.60;;
21091;SDS011;10704;42.678;23.288;2024-01-15T04:36:11;141.50;;;67.13;;
21091;SDS011;10704;42.678;23.288;2024-01-15T04:38:37;133.53;;;62.40;;
21091;SDS011;10704;42.678;23.288;2024-01-15T04:41:02;131.87;;;59.03;;
21091;SDS011;10704;42.678;23.288;2024-01-15T04:43:28;135.53;;;59.03;;
21091;SDS011;10704;42.678;23.288;2024-01-15T04:45:54;136.57;;;61.07;;
21091;SDS011;10704;42.678;23.288;2024-01-15T04:48:20;131.13;;;60.30;;
21091;SDS011;10704;42.678;23.288;2024-01-15T04:50:48;135.60;;;60.23;;
21091;SDS011;10704;42.678;23.288;2024-01-15T04:53:14;132.80;;;59.93;;
21091;SDS011;10704;42.678;23.288;2024-01-15T04:55:39;134.47;;;57.90;;
21091;SDS011;10704;42.678;23.288;2024-01-15T04:58:05;122.33;;;56.70;;
21091;SDS011;10704;42.678;23.288;2024-01-15T05:00:31;118.10;;;58.27;;
21091;SDS011;10704;42.678;23.288;2024-01-15T05:02:57;129.70;;;57.13;;
21091;SDS011;10704;42.678;23.288;2024-01-15T05:05:23;137.20;;;61.43;;
21091;SDS011;10704;42.678;23.288;2024-01-15T05:07:49;135.33;;;61.83;;
21091;SDS011;10704;42.678;23.288;2024-01-15T05:10:15;123.37;;;58.57;;
21091;SDS011;10704;42.678;23.288;2024-01-15T05:12:41;131.13;;;59.27;;
21091;SDS011;10704;42.678;23.288;2024-01-15T05:15:07;147.37;;;66.77;;
21091;SDS011;10704;42.678;23.288;2024-01-15T05:17:33;141.13;;;63.20;;
21091;SDS011;10704;42.678;23.288;2024-01-15T05:19:59;133.17;;;63.73;;
21091;SDS011;10704;42.678;23.288;2024-01-15T05:22:25;138.60;;;64.10;;
21091;SDS011;10704;42.678;23.288;2024-01-15T05:24:51;129.10;;;59.83;;
21091;SDS011;10704;42.678;23.288;2024-01-15T05:27:17;133.87;;;61.93;;
21091;SDS011;10704;42.678;23.288;2024-01-15T05:29:43;130.27;;;62.13;;
21091;SDS011;10704;42.678;23.288;2024-01-15T05:32:09;147.50;;;62.53;;
21091;SDS011;10704;42.678;23.288;2024-01-15T05:34:35;138.80;;;60.07;;
21091;SDS011;10704;42.678;23.288;2024-01-15T05:37:01;145.73;;;65.60;;
21091;SDS011;10704;42.678;23.288;2024-01-15T05:39:27;133.03;;;63.13;;
21091;SDS011;10704;42.678;23.288;2024-01-15T05:41:53;127.63;;;61.20;;
21091;SDS011;10704;42.678;23.288;2024-01-15T05:44:18;135.00;;;60.60;;
21091;SDS011;10704;42.678;23.288;2024-01-15T05:46:44;137.90;;;60.47;;
21091;SDS011;10704;42.678;23.288;2024-01-15T05:49:10;128.97;;;59.73;;
21091;SDS011;10704;42.678;23.288;2024-01-15T05:51:36;135.80;;;64.17;;
21091;SDS011;10704;42.678;23.288;2024-01-15T05:54:02;133.83;;;61.57;;
21091;SDS011;10704;42.678;23.288;2024-01-15T05:56:28;136.33;;;62.23;;
21091;SDS011;10704;42.678;23.288;2024-01-15T05:58:54;127.27;;;60.63;;
21091;SDS011;10704;42.678;23.288;2024-01-15T06:01:20;112.30;;;54.20;;
21091;SDS011;10704;42.678;23.288;2024-01-15T06:03:46;130.00;;;57.07;;
21091;SDS011;10704;42.678;23.288;2024-01-15T06:06:12;122.97;;;54.23;;
21091;SDS011;10704;42.678;23.288;2024-01-15T06:08:38;126.97;;;57.63;;
21091;SDS011;10704;42.678;23.288;2024-01-15T06:11:04;118.77;;;54.90;;
21091;SDS011;10704;42.678;23.288;2024-01-15T06:13:31;120.93;;;56.57;;
21091;SDS011;10704;42.678;23.288;2024-01-15T06:15:57;115.40;;;52.20;;
21091;SDS011;10704;42.678;23.288;2024-01-15T06:18:23;122.97;;;54.83;;
21091;SDS011;10704;42.678;23.288;2024-01-15T06:20:49;116.40;;;54.50;;
21091;SDS011;10704;42.678;23.288;2024-01-15T06:23:15;115.37;;;55.17;;
21091;SDS011;10704;42.678;23.288;2024-01-15T06:25:41;120.17;;;55.37;;
21091;SDS011;10704;42.678;23.288;2024-01-15T06:28:07;115.93;;;54.90;;
21091;SDS011;10704;42.678;23.288;2024-01-15T06:30:33;116.43;;;52.73;;
21091;SDS011;10704;42.678;23.288;2024-01-15T06:33:00;120.83;;;55.20;;
21091;SDS011;10704;42.678;23.288;2024-01-15T06:35:26;116.07;;;56.33;;
21091;SDS011;10704;42.678;23.288;2024-01-15T06:37:52;121.17;;;57.23;;
21091;SDS011;10704;42.678;23.288;2024-01-15T06:40:18;120.37;;;57.33;;
21091;SDS011;10704;42.678;23.288;2024-01-15T06:42:44;118.60;;;54.63;;
21091;SDS011;10704;42.678;23.288;2024-01-15T06:45:09;111.60;;;54.20;;
21091;SDS011;10704;42.678;23.288;2024-01-15T06:47:35;105.03;;;49.83;;
21091;SDS011;10704;42.678;23.288;2024-01-15T06:50:01;112.30;;;53.93;;
21091;SDS011;10704;42.678;23.288;2024-01-15T06:52:27;105.20;;;49.33;;
21091;SDS011;10704;42.678;23.288;2024-01-15T06:54:53;104.10;;;48.87;;
21091;SDS011;10704;42.678;23.288;2024-01-15T06:57:19;112.75;;;49.17;;
21091;SDS011;10704;42.678;23.288;2024-01-15T06:59:45;83.70;;;40.23;;
21091;SDS011;10704;42.678;23.288;2024-01-15T07:02:11;99.93;;;49.25;;
21091;SDS011;10704;42.678;23.288;2024-01-15T07:04:37;105.68;;;49.20;;
21091;SDS011;10704;42.678;23.288;2024-01-15T07:07:03;117.15;;;54.15;;
21091;SDS011;10704;42.678;23.288;2024-01-15T07:09:29;110.75;;;52.13;;
21091;SDS011;10704;42.678;23.288;2024-01-15T07:11:55;92.20;;;45.60;;
21091;SDS011;10704;42.678;23.288;2024-01-15T07:14:23;91.22;;;42.72;;
21091;SDS011;10704;42.678;23.288;2024-01-15T07:16:49;94.03;;;42.72;;
21091;SDS011;10704;42.678;23.288;2024-01-15T07:19:15;86.27;;;39.07;;
21091;SDS011;10704;42.678;23.288;2024-01-15T07:21:41;83.75;;;40.05;;
21091;SDS011;10704;42.678;23.288;2024-01-15T07:24:08;84.47;;;40.03;;
21091;SDS011;10704;42.678;23.288;2024-01-15T07:26:35;80.65;;;38.60;;
21091;SDS011;10704;42.678;23.288;2024-01-15T07:29:00;73.25;;;35.28;;
21091;SDS011;10704;42.678;23.288;2024-01-15T07:31:27;77.43;;;36.00;;
21091;SDS011;10704;42.678;23.288;2024-01-15T07:33:52;77.15;;;38.47;;
21091;SDS011;10704;42.678;23.288;2024-01-15T07:36:18;86.35;;;40.03;;
21091;SDS011;10704;42.678;23.288;2024-01-15T07:38:44;90.75;;;41.00;;
21091;SDS011;10704;42.678;23.288;2024-01-15T07:41:11;92.53;;;42.80;;
21091;SDS011;10704;42.678;23.288;2024-01-15T07:43:38;90.82;;;42.10;;
21091;SDS011;10704;42.678;23.288;2024-01-15T07:46:04;83.18;;;38.80;;
21091;SDS011;10704;42.678;23.288;2024-01-15T07:48:32;92.22;;;40.10;;
21091;SDS011;10704;42.678;23.288;2024-01-15T07:50:58;85.40;;;41.83;;
21091;SDS011;10704;42.678;23.288;2024-01-15T07:53:24;82.38;;;38.53;;
21091;SDS011;10704;42.678;23.288;2024-01-15T07:55:50;79.88;;;39.65;;
21091;SDS011;10704;42.678;23.288;2024-01-15T07:58:16;88.28;;;40.38;;
21091;SDS011;10704;42.678;23.288;2024-01-15T08:00:41;81.70;;;42.30;;
21091;SDS011;10704;42.678;23.288;2024-01-15T08:03:07;108.93;;;51.40;;
21091;SDS011;10704;42.678;23.288;2024-01-15T08:05:33;113.38;;;53.00;;
21091;SDS011;10704;42.678;23.288;2024-01-15T08:08:00;94.28;;;49.42;;
21091;SDS011;10704;42.678;23.288;2024-01-15T08:10:26;104.35;;;49.10;;
21091;SDS011;10704;42.678;23.288;2024-01-15T08:12:51;97.18;;;48.92;;
21091;SDS011;10704;42.678;23.288;2024-01-15T08:15:17;90.20;;;44.58;;
21091;SDS011;10704;42.678;23.288;2024-01-15T08:17:43;91.95;;;44.42;;
21091;SDS011;10704;42.678;23.288;2024-01-15T08:20:09;92.85;;;43.67;;
21091;SDS011;10704;42.678;23.288;2024-01-15T08:22:35;93.90;;;44.92;;
21091;SDS011;10704;42.678;23.288;2024-01-15T08:25:02;93.13;;;44.15;;
21091;SDS011;10704;42.678;23.288;2024-01-15T08:27:28;84.55;;;43.08;;
21091;SDS011;10704;42.678;23.288;2024-01-15T08:29:55;98.90;;;45.92;;
21091;SDS011;10704;42.678;23.288;2024-01-15T08:32:21;86.25;;;43.40;;
21091;SDS011;10704;42.678;23.288;2024-01-15T08:34:47;84.60;;;43.45;;
21091;SDS011;10704;42.678;23.288;2024-01-15T08:37:15;86.28;;;42.15;;
21091;SDS011;10704;42.678;23.288;2024-01-15T08:39:41;96.80;;;42.53;;
21091;SDS011;10704;42.678;23.288;2024-01-15T08:42:06;81.95;;;41.67;;
21091;SDS011;10704;42.678;23.288;2024-01-15T08:44:32;79.68;;;37.40;;
21091;SDS011;10704;42.678;23.288;2024-01-15T08:46:58;75.22;;;37.53;;
21091;SDS011;10704;42.678;23.288;2024-01-15T08:49:24;78.88;;;38.65;;
21091;SDS011;10704;42.678;23.288;2024-01-15T08:51:50;67.72;;;36.65;;
21091;SDS011;10704;42.678;23.288;2024-01-15T08:54:16;69.53;;;35.47;;
21091;SDS011;10704;42.678;23.288;2024-01-15T08:56:43;72.15;;;35.10;;
21091;SDS011;10704;42.678;23.288;2024-01-15T08:59:09;63.42;;;32.95;;
21091;SDS011;10704;42.678;23.288;2024-01-15T09:01:37;62.28;;;30.20;;
21091;SDS011;10704;42.678;23.288;2024-01-15T09:04:04;54.72;;;28.33;;
21091;SDS011;10704;42.678;23.288;2024-01-15T09:06:30;56.15;;;26.77;;
21091;SDS011;10704;42.678;23.288;2024-01-15T09:08:56;54.85;;;27.60;;
21091;SDS011;10704;42.678;23.288;2024-01-15T09:11:22;58.20;;;28.95;;
21091;SDS011;10704;42.678;23.288;2024-01-15T09:13:48;66.55;;;29.30;;
21091;SDS011;10704;42.678;23.288;2024-01-15T09:16:14;60.47;;;29.83;;
21091;SDS011;10704;42.678;23.288;2024-01-15T09:18:40;57.50;;;29.75;;
21091;SDS011;10704;42.678;23.288;2024-01-15T09:21:06;60.65;;;28.48;;
21091;SDS011;10704;42.678;23.288;2024-01-15T09:23:32;63.40;;;30.60;;
21091;SDS011;10704;42.678;23.288;2024-01-15T09:25:57;61.28;;;31.02;;
21091;SDS011;10704;42.678;23.288;2024-01-15T09:28:24;64.70;;;34.33;;
21091;SDS011;10704;42.678;23.288;2024-01-15T09:30:50;74.20;;;37.85;;
21091;SDS011;10704;42.678;23.288;2024-01-15T09:33:16;91.25;;;45.78;;
21091;SDS011;10704;42.678;23.288;2024-01-15T09:35:42;84.85;;;42.35;;
21091;SDS011;10704;42.678;23.288;2024-01-15T09:38:08;83.63;;;41.58;;
21091;SDS011;10704;42.678;23.288;2024-01-15T09:40:33;83.90;;;41.38;;
21091;SDS011;10704;42.678;23.288;2024-01-15T09:43:03;88.65;;;41.88;;
21091;SDS011;10704;42.678;23.288;2024-01-15T09:45:30;86.32;;;43.03;;
21091;SDS011;10704;42.678;23.288;2024-01-15T09:47:56;80.53;;;41.60;;
21091;SDS011;10704;42.678;23.288;2024-01-15T09:50:22;69.53;;;38.42;;
21091;SDS011;10704;42.678;23.288;2024-01-15T09:52:51;74.18;;;37.65;;
21091;SDS011;10704;42.678;23.288;2024-01-15T09:55:18;70.75;;;37.95;;
21091;SDS011;10704;42.678;23.288;2024-01-15T09:57:44;83.65;;;41.95;;
21091;SDS011;10704;42.678;23.288;2024-01-15T10:00:14;88.22;;;45.88;;
21091;SDS011;10704;42.678;23.288;2024-01-15T10:02:43;78.68;;;41.58;;
21091;SDS011;10704;42.678;23.288;2024-01-15T10:05:09;90.22;;;46.60;;
21091;SDS011;10704;42.678;23.288;2024-01-15T10:07:35;85.43;;;44.63;;
21091;SDS011;10704;42.678;23.288;2024-01-15T10:10:03;107.70;;;50.75;;
21091;SDS011;10704;42.678;23.288;2024-01-15T10:12:29;90.53;;;49.17;;
21091;SDS011;10704;42.678;23.288;2024-01-15T10:14:55;93.15;;;49.33;;
21091;SDS011;10704;42.678;23.288;2024-01-15T10:17:21;88.40;;;49.53;;
21091;SDS011;10704;42.678;23.288;2024-01-15T10:19:49;78.68;;;44.67;;
21091;SDS011;10704;42.678;23.288;2024-01-15T10:22:15;87.53;;;47.20;;
21091;SDS011;10704;42.678;23.288;2024-01-15T10:24:41;86.85;;;45.95;;
21091;SDS011;10704;42.678;23.288;2024-01-15T10:27:07;78.70;;;43.08;;
21091;SDS011;10704;42.678;23.288;2024-01-15T10:29:35;74.13;;;40.45;;
21091;SDS011;10704;42.678;23.288;2024-01-15T10:32:02;79.90;;;45.00;;
21091;SDS011;10704;42.678;23.288;2024-01-15T10:34:31;81.93;;;43.97;;
21091;SDS011;10704;42.678;23.288;2024-01-15T10:36:57;66.32;;;35.65;;
21091;SDS011;10704;42.678;23.288;2024-01-15T10:39:23;63.97;;;33.97;;
21091;SDS011;10704;42.678;23.288;2024-01-15T10:41:50;62.42;;;35.38;;
21091;SDS011;10704;42.678;23.288;2024-01-15T10:44:16;67.03;;;34.40;;
21091;SDS011;10704;42.678;23.288;2024-01-15T10:46:43;57.75;;;30.75;;
21091;SDS011;10704;42.678;23.288;2024-01-15T10:49:10;53.45;;;30.25;;
21091;SDS011;10704;42.678;23.288;2024-01-15T10:51:37;57.05;;;31.45;;
21091;SDS011;10704;42.678;23.288;2024-01-15T10:54:04;51.30;;;30.38;;
21091;SDS011;10704;42.678;23.288;2024-01-15T10:56:31;56.90;;;32.28;;
21091;SDS011;10704;42.678;23.288;2024-01-15T10:59:00;60.60;;;30.17;;
21091;SDS011;10704;42.678;23.288;2024-01-15T11:01:28;62.30;;;30.63;;
21091;SDS011;10704;42.678;23.288;2024-01-15T11:03:55;51.80;;;26.75;;
21091;SDS011;10704;42.678;23.288;2024-01-15T11:06:23;50.60;;;28.25;;
21091;SDS011;10704;42.678;23.288;2024-01-15T11:08:53;50.22;;;26.60;;
21091;SDS011;10704;42.678;23.288;2024-01-15T11:11:23;53.83;;;26.38;;
21091;SDS011;10704;42.678;23.288;2024-01-15T11:13:49;40.15;;;21.45;;
21091;SDS011;10704;42.678;23.288;2024-01-15T11:16:17;39.85;;;20.73;;
21091;SDS011;10704;42.678;23.288;2024-01-15T11:19:00;37.17;;;20.98;;
21091;SDS011;10704;42.678;23.288;2024-01-15T11:21:28;34.50;;;19.55;;
21091;SDS011;10704;42.678;23.288;2024-01-15T11:24:00;36.13;;;20.95;;
21091;SDS011;10704;42.678;23.288;2024-01-15T11:28:55;34.42;;;18.63;;
21091;SDS011;10704;42.678;23.288;2024-01-15T11:34:09;37.63;;;18.77;;
21091;SDS011;10704;42.678;23.288;2024-01-15T11:41:59;32.90;;;18.65;;
21091;SDS011;10704;42.678;23.288;2024-01-15T11:44:26;34.47;;;19.23;;
21091;SDS011;10704;42.678;23.288;2024-01-15T11:46:59;40.85;;;18.75;;
21091;SDS011;10704;42.678;23.288;2024-01-15T11:52:32;32.47;;;18.33;;
21091;SDS011;10704;42.678;23.288;2024-01-15T11:57:50;35.95;;;18.48;;
21091;SDS011;10704;42.678;23.288;2024-01-15T12:00:17;37.33;;;19.25;;
21091;SDS011;10704;42.678;23.288;2024-01-15T12:02:44;32.38;;;17.73;;
21091;SDS011;10704;42.678;23.288;2024-01-15T12:05:12;29.85;;;16.25;;
21091;SDS011;10704;42.678;23.288;2024-01-15T12:07:39;36.15;;;18.00;;
21091;SDS011;10704;42.678;23.288;2024-01-15T12:10:13;29.23;;;16.00;;
21091;SDS011;10704;42.678;23.288;2024-01-15T12:15:27;30.80;;;16.58;;
21091;SDS011;10704;42.678;23.288;2024-01-15T12:17:58;35.08;;;16.52;;
21091;SDS011;10704;42.678;23.288;2024-01-15T12:20:28;27.60;;;15.45;;
21091;SDS011;10704;42.678;23.288;2024-01-15T12:22:55;29.65;;;14.25;;
21091;SDS011;10704;42.678;23.288;2024-01-15T12:25:22;29.60;;;15.75;;
21091;SDS011;10704;42.678;23.288;2024-01-15T12:27:49;39.55;;;19.42;;
21091;SDS011;10704;42.678;23.288;2024-01-15T12:30:16;39.47;;;18.75;;
21091;SDS011;10704;42.678;23.288;2024-01-15T12:32:42;41.30;;;19.35;;
21091;SDS011;10704;42.678;23.288;2024-01-15T12:35:09;37.45;;;18.08;;
21091;SDS011;10704;42.678;23.288;2024-01-15T12:37:36;35.95;;;18.42;;
21091;SDS011;10704;42.678;23.288;2024-01-15T12:40:04;45.33;;;20.80;;
21091;SDS011;10704;42.678;23.288;2024-01-15T12:42:41;46.88;;;21.52;;
21091;SDS011;10704;42.678;23.288;2024-01-15T12:45:09;35.42;;;17.95;;
21091;SDS011;10704;42.678;23.288;2024-01-15T12:47:36;38.50;;;18.25;;
21091;SDS011;10704;42.678;23.288;2024-01-15T12:50:05;42.63;;;23.52;;
21091;SDS011;10704;42.678;23.288;2024-01-15T12:52:35;36.38;;;19.45;;
21091;SDS011;10704;42.678;23.288;2024-01-15T12:55:06;42.03;;;21.48;;
21091;SDS011;10704;42.678;23.288;2024-01-15T12:57:36;45.28;;;22.60;;
21091;SDS011;10704;42.678;23.288;2024-01-15T13:00:05;53.33;;;23.23;;
21091;SDS011;10704;42.678;23.288;2024-01-15T13:02:36;47.58;;;21.08;;
21091;SDS011;10704;42.678;23.288;2024-01-15T13:05:03;42.17;;;22.08;;
21091;SDS011;10704;42.678;23.288;2024-01-15T13:07:30;36.13;;;19.15;;
21091;SDS011;10704;42.678;23.288;2024-01-15T13:09:57;41.88;;;20.48;;
21091;SDS011;10704;42.678;23.288;2024-01-15T13:12:23;37.45;;;19.60;;
21091;SDS011;10704;42.678;23.288;2024-01-15T13:14:49;44.10;;;20.00;;
21091;SDS011;10704;42.678;23.288;2024-01-15T13:17:15;42.00;;;21.83;;
21091;SDS011;10704;42.678;23.288;2024-01-15T13:19:41;43.38;;;20.15;;
21091;SDS011;10704;42.678;23.288;2024-01-15T13:22:07;48.53;;;22.60;;
21091;SDS011;10704;42.678;23.288;2024-01-15T13:24:34;41.58;;;20.45;;
21091;SDS011;10704;42.678;23.288;2024-01-15T13:27:04;40.75;;;20.67;;
21091;SDS011;10704;42.678;23.288;2024-01-15T13:29:31;46.58;;;22.20;;
21091;SDS011;10704;42.678;23.288;2024-01-15T13:31:57;44.17;;;22.33;;
21091;SDS011;10704;42.678;23.288;2024-01-15T13:34:24;40.03;;;21.73;;
21091;SDS011;10704;42.678;23.288;2024-01-15T13:36:50;47.22;;;22.85;;
21091;SDS011;10704;42.678;23.288;2024-01-15T13:39:16;40.63;;;22.23;;
21091;SDS011;10704;42.678;23.288;2024-01-15T13:41:45;45.08;;;20.90;;
21091;SDS011;10704;42.678;23.288;2024-01-15T13:44:12;43.28;;;22.60;;
21091;SDS011;10704;42.678;23.288;2024-01-15T13:46:38;43.60;;;22.02;;
21091;SDS011;10704;42.678;23.288;2024-01-15T13:49:04;44.17;;;23.30;;
21091;SDS011;10704;42.678;23.288;2024-01-15T13:51:34;43.20;;;22.08;;
21091;SDS011;10704;42.678;23.288;2024-01-15T13:54:01;40.72;;;21.20;;
21091;SDS011;10704;42.678;23.288;2024-01-15T13:56:29;44.58;;;22.35;;
21091;SDS011;10704;42.678;23.288;2024-01-15T13:58:58;45.42;;;22.13;;
21091;SDS011;10704;42.678;23.288;2024-01-15T14:01:24;43.85;;;22.23;;
21091;SDS011;10704;42.678;23.288;2024-01-15T14:03:52;44.63;;;22.67;;
21091;SDS011;10704;42.678;23.288;2024-01-15T14:06:18;44.30;;;23.65;;
21091;SDS011;10704;42.678;23.288;2024-01-15T14:08:45;50.90;;;23.13;;
21091;SDS011;10704;42.678;23.288;2024-01-15T14:11:11;47.15;;;24.08;;
21091;SDS011;10704;42.678;23.288;2024-01-15T14:13:37;51.17;;;23.42;;
21091;SDS011;10704;42.678;23.288;2024-01-15T14:16:03;47.67;;;23.50;;
21091;SDS011;10704;42.678;23.288;2024-01-15T14:18:30;51.50;;;23.88;;
21091;SDS011;10704;42.678;23.288;2024-01-15T14:20:56;50.90;;;22.98;;